sensor_id;sensor_type;location;lat;lon;timestamp;P1;durP1;ratioP1;P2;durP2;ratioP2
11691;SDS011;33659;42.672;23.354;2023-12-04T00:02:25;6.70;;;4.50;;
11691;SDS011;33659;42.672;23.354;2023-12-04T00:04:51;5.40;;;4.37;;
11691;SDS011;33659;42.672;23.354;2023-12-04T00:07:18;5.57;;;4.23;;
11691;SDS011;33659;42.672;23.354;2023-12-04T00:09:45;4.13;;;3.73;;
11691;SDS011;33659;42.672;23.354;2023-12-04T00:12:11;6.40;;;4.27;;
11691;SDS011;33659;42.672;23.354;2023-12-04T00:14:38;6.33;;;4.43;;
11691;SDS011;33659;42.672;23.354;2023-12-04T00:17:06;4.10;;;3.67;;
11691;SDS011;33659;42.672;23.354;2023-12-04T00:19:33;6.60;;;4.40;;
11691;SDS011;33659;42.672;23.354;2023-12-04T00:21:59;5.90;;;3.63;;
11691;SDS011;33659;42.672;23.354;2023-12-04T00:24:26;5.13;;;4.30;;
11691;SDS011;33659;42.672;23.354;2023-12-04T00:26:53;6.63;;;4.07;;
11691;SDS011;33659;42.672;23.354;2023-12-04T00:29:19;5.20;;;4.17;;
11691;SDS011;33659;42.672;23.354;2023-12-04T00:31:46;4.60;;;4.03;;
11691;SDS011;33659;42.672;23.354;2023-12-04T00:34:14;7.43;;;5.37;;
11691;SDS011;33659;42.672;23.354;2023-12-04T00:36:41;4.57;;;3.97;;
11691;SDS011;33659;42.672;23.354;2023-12-04T00:39:07;5.60;;;4.57;;
11691;SDS011;33659;42.672;23.354;2023-12-04T00:41:34;6.90;;;4.40;;
11691;SDS011;33659;42.672;23.354;2023-12-04T00:44:01;7.10;;;3.90;;
11691;SDS011;33659;42.672;23.354;2023-12-04T00:46:27;4.50;;;4.10;;
11691;SDS011;33659;42.672;23.354;2023-12-04T00:48:54;5.57;;;4.47;;
11691;SDS011;33659;42.672;23.354;2023-12-04T00:51:22;4.17;;;3.77;;
11691;SDS011;33659;42.672;23.354;2023-12-04T00:53:53;5.50;;;4.17;;
11691;SDS011;33659;42.672;23.354;2023-12-04T00:56:20;4.27;;;3.83;;
11691;SDS011;33659;42.672;23.354;2023-12-04T00:58:46;5.67;;;4.67;;
11691;SDS011;33659;42.672;23.354;2023-12-04T01:01:14;5.97;;;3.97;;
11691;SDS011;33659;42.672;23.354;2023-12-04T01:03:41;4.07;;;3.50;;
11691;SDS011;33659;42.672;23.354;2023-12-04T01:06:19;6.27;;;4.43;;
11691;SDS011;33659;42.672;23.354;2023-12-04T01:08:48;4.73;;;4.23;;
11691;SDS011;33659;42.672;23.354;2023-12-04T01:11:16;5.57;;;4.40;;
11691;SDS011;33659;42.672;23.354;2023-12-04T01:13:44;6.00;;;4.23;;
11691;SDS011;33659;42.672;23.354;2023-12-04T01:16:11;5.17;;;4.23;;
11691;SDS011;33659;42.672;23.354;2023-12-04T01:18:38;4.57;;;3.60;;
11691;SDS011;33659;42.672;23.354;2023-12-04T01:21:04;5.23;;;4.73;;
11691;SDS011;33659;42.672;23.354;2023-12-04T01:23:32;5.20;;;4.30;;
11691;SDS011;33659;42.672;23.354;2023-12-04T01:26:00;6.37;;;4.17;;
11691;SDS011;33659;42.672;23.354;2023-12-04T01:28:26;6.40;;;4.33;;
11691;SDS011;33659;42.672;23.354;2023-12-04T01:30:53;6.60;;;4.13;;
11691;SDS011;33659;42.672;23.354;2023-12-04T01:33:20;5.33;;;3.50;;
11691;SDS011;33659;42.672;23.354;2023-12-04T01:35:46;5.73;;;4.37;;
11691;SDS011;33659;42.672;23.354;2023-12-04T01:38:13;4.77;;;4.27;;
11691;SDS011;33659;42.672;23.354;2023-12-04T01:40:40;7.80;;;4.80;;
11691;SDS011;33659;42.672;23.354;2023-12-04T01:43:08;7.03;;;4.77;;
11691;SDS011;33659;42.672;23.354;2023-12-04T01:45:34;5.23;;;4.63;;
11691;SDS011;33659;42.672;23.354;2023-12-04T01:48:01;5.83;;;4.80;;
11691;SDS011;33659;42.672;23.354;2023-12-04T01:50:30;4.97;;;4.47;;
11691;SDS011;33659;42.672;23.354;2023-12-04T01:52:57;5.67;;;4.27;;
11691;SDS011;33659;42.672;23.354;2023-12-04T01:55:24;4.80;;;4.37;;
11691;SDS011;33659;42.672;23.354;2023-12-04T01:57:51;7.03;;;4.50;;
11691;SDS011;33659;42.672;23.354;2023-12-04T02:00:22;4.30;;;3.80;;
11691;SDS011;33659;42.672;23.354;2023-12-04T02:02:49;5.80;;;4.30;;
11691;SDS011;33659;42.672;23.354;2023-12-04T02:05:16;7.00;;;5.13;;
11691;SDS011;33659;42.672;23.354;2023-12-04T02:07:44;5.13;;;4.67;;
11691;SDS011;33659;42.672;23.354;2023-12-04T02:10:11;6.37;;;4.57;;
11691;SDS011;33659;42.672;23.354;2023-12-04T02:12:38;4.73;;;4.23;;
11691;SDS011;33659;42.672;23.354;2023-12-04T02:15:05;5.20;;;4.50;;
11691;SDS011;33659;42.672;23.354;2023-12-04T02:17:33;5.73;;;4.10;;
11691;SDS011;33659;42.672;23.354;2023-12-04T02:20:01;6.00;;;4.83;;
11691;SDS011;33659;42.672;23.354;2023-12-04T02:22:30;7.77;;;4.40;;
11691;SDS011;33659;42.672;23.354;2023-12-04T02:24:58;7.97;;;4.43;;
11691;SDS011;33659;42.672;23.354;2023-12-04T02:27:26;6.90;;;4.43;;
11691;SDS011;33659;42.672;23.354;2023-12-04T02:29:56;5.33;;;4.20;;
11691;SDS011;33659;42.672;23.354;2023-12-04T02:32:26;5.17;;;4.07;;
11691;SDS011;33659;42.672;23.354;2023-12-04T02:34:56;5.87;;;4.60;;
11691;SDS011;33659;42.672;23.354;2023-12-04T02:37:24;6.27;;;3.93;;
11691;SDS011;33659;42.672;23.354;2023-12-04T02:39:52;6.77;;;5.00;;
11691;SDS011;33659;42.672;23.354;2023-12-04T02:42:21;6.87;;;4.67;;
11691;SDS011;33659;42.672;23.354;2023-12-04T02:44:50;5.33;;;4.83;;
11691;SDS011;33659;42.672;23.354;2023-12-04T02:47:16;4.77;;;3.97;;
11691;SDS011;33659;42.672;23.354;2023-12-04T02:49:44;5.90;;;3.97;;
11691;SDS011;33659;42.672;23.354;2023-12-04T02:52:10;3.80;;;3.47;;
11691;SDS011;33659;42.672;23.354;2023-12-04T02:54:37;6.97;;;4.33;;
11691;SDS011;33659;42.672;23.354;2023-12-04T02:57:04;5.03;;;4.23;;
11691;SDS011;33659;42.672;23.354;2023-12-04T02:59:32;5.70;;;4.33;;
11691;SDS011;33659;42.672;23.354;2023-12-04T03:01:58;6.27;;;4.30;;
11691;SDS011;33659;42.672;23.354;2023-12-04T03:04:26;5.23;;;4.17;;
11691;SDS011;33659;42.672;23.354;2023-12-04T03:06:52;4.10;;;3.60;;
11691;SDS011;33659;42.672;23.354;2023-12-04T03:09:19;5.80;;;3.87;;
11691;SDS011;33659;42.672;23.354;2023-12-04T03:11:46;5.43;;;4.23;;
11691;SDS011;33659;42.672;23.354;2023-12-04T03:14:12;6.50;;;4.80;;
11691;SDS011;33659;42.672;23.354;2023-12-04T03:16:40;4.70;;;4.17;;
11691;SDS011;33659;42.672;23.354;2023-12-04T03:19:07;6.60;;;4.87;;
11691;SDS011;33659;42.672;23.354;2023-12-04T03:21:34;4.20;;;3.80;;
11691;SDS011;33659;42.672;23.354;2023-12-04T03:24:00;6.63;;;4.40;;
11691;SDS011;33659;42.672;23.354;2023-12-04T03:26:27;7.30;;;4.90;;
11691;SDS011;33659;42.672;23.354;2023-12-04T03:28:54;5.73;;;4.20;;
11691;SDS011;33659;42.672;23.354;2023-12-04T03:31:21;5.13;;;4.53;;
11691;SDS011;33659;42.672;23.354;2023-12-04T03:33:49;6.87;;;4.57;;
11691;SDS011;33659;42.672;23.354;2023-12-04T03:36:15;4.60;;;4.20;;
11691;SDS011;33659;42.672;23.354;2023-12-04T03:38:42;5.93;;;4.77;;
11691;SDS011;33659;42.672;23.354;2023-12-04T03:41:13;4.60;;;3.90;;
11691;SDS011;33659;42.672;23.354;2023-12-04T03:43:40;5.13;;;4.27;;
11691;SDS011;33659;42.672;23.354;2023-12-04T03:46:06;5.67;;;4.80;;
11691;SDS011;33659;42.672;23.354;2023-12-04T03:48:33;5.63;;;4.33;;
11691;SDS011;33659;42.672;23.354;2023-12-04T03:51:01;8.03;;;4.97;;
11691;SDS011;33659;42.672;23.354;2023-12-04T03:53:28;5.67;;;4.00;;
11691;SDS011;33659;42.672;23.354;2023-12-04T03:55:57;5.27;;;3.70;;
11691;SDS011;33659;42.672;23.354;2023-12-04T03:58:24;4.93;;;4.50;;
11691;SDS011;33659;42.672;23.354;2023-12-04T04:00:51;3.83;;;3.37;;
11691;SDS011;33659;42.672;23.354;2023-12-04T04:03:17;4.40;;;4.00;;
11691;SDS011;33659;42.672;23.354;2023-12-04T04:05:44;6.40;;;4.10;;
11691;SDS011;33659;42.672;23.354;2023-12-04T04:08:12;3.83;;;3.30;;
11691;SDS011;33659;42.672;23.354;2023-12-04T04:10:39;5.80;;;4.83;;
11691;SDS011;33659;42.672;23.354;2023-12-04T04:13:06;3.73;;;2.97;;
11691;SDS011;33659;42.672;23.354;2023-12-04T04:15:32;4.20;;;3.53;;
11691;SDS011;33659;42.672;23.354;2023-12-04T04:17:59;5.57;;;4.90;;
11691;SDS011;33659;42.672;23.354;2023-12-04T04:20:26;6.17;;;4.00;;
11691;SDS011;33659;42.672;23.354;2023-12-04T04:22:53;4.73;;;3.93;;
11691;SDS011;33659;42.672;23.354;2023-12-04T04:25:21;4.57;;;3.90;;
11691;SDS011;33659;42.672;23.354;2023-12-04T04:27:49;5.83;;;4.00;;
11691;SDS011;33659;42.672;23.354;2023-12-04T04:30:15;4.10;;;3.70;;
11691;SDS011;33659;42.672;23.354;2023-12-04T04:32:42;4.70;;;3.77;;
11691;SDS011;33659;42.672;23.354;2023-12-04T04:35:09;9.73;;;4.73;;
11691;SDS011;33659;42.672;23.354;2023-12-04T04:37:36;5.60;;;4.63;;
11691;SDS011;33659;42.672;23.354;2023-12-04T04:40:03;4.57;;;4.17;;
11691;SDS011;33659;42.672;23.354;2023-12-04T04:42:31;5.33;;;4.20;;
11691;SDS011;33659;42.672;23.354;2023-12-04T04:44:58;4.97;;;4.57;;
11691;SDS011;33659;42.672;23.354;2023-12-04T04:47:25;4.87;;;4.37;;
11691;SDS011;33659;42.672;23.354;2023-12-04T04:49:52;4.37;;;3.97;;
11691;SDS011;33659;42.672;23.354;2023-12-04T04:52:18;5.07;;;4.17;;
11691;SDS011;33659;42.672;23.354;2023-12-04T04:54:45;9.53;;;4.10;;
11691;SDS011;33659;42.672;23.354;2023-12-04T04:57:11;6.30;;;3.93;;
11691;SDS011;33659;42.672;23.354;2023-12-04T04:59:39;4.03;;;3.63;;
11691;SDS011;33659;42.672;23.354;2023-12-04T05:02:06;8.03;;;4.80;;
11691;SDS011;33659;42.672;23.354;2023-12-04T05:04:35;8.33;;;4.27;;
11691;SDS011;33659;42.672;23.354;2023-12-04T05:07:02;5.53;;;4.20;;
11691;SDS011;33659;42.672;23.354;2023-12-04T05:09:30;5.50;;;4.53;;
11691;SDS011;33659;42.672;23.354;2023-12-04T05:11:56;4.87;;;4.10;;
11691;SDS011;33659;42.672;23.354;2023-12-04T05:14:23;6.43;;;4.67;;
11691;SDS011;33659;42.672;23.354;2023-12-04T05:16:51;7.03;;;4.90;;
11691;SDS011;33659;42.672;23.354;2023-12-04T05:19:18;4.80;;;4.20;;
11691;SDS011;33659;42.672;23.354;2023-12-04T05:21:44;5.07;;;4.33;;
11691;SDS011;33659;42.672;23.354;2023-12-04T05:24:11;3.90;;;3.60;;
11691;SDS011;33659;42.672;23.354;2023-12-04T05:26:38;5.60;;;4.30;;
11691;SDS011;33659;42.672;23.354;2023-12-04T05:29:04;6.47;;;4.43;;
11691;SDS011;33659;42.672;23.354;2023-12-04T05:31:31;5.63;;;4.77;;
11691;SDS011;33659;42.672;23.354;2023-12-04T05:33:59;6.73;;;4.27;;
11691;SDS011;33659;42.672;23.354;2023-12-04T05:36:26;7.70;;;4.07;;
11691;SDS011;33659;42.672;23.354;2023-12-04T05:38:53;5.60;;;4.33;;
11691;SDS011;33659;42.672;23.354;2023-12-04T05:41:20;5.50;;;4.17;;
11691;SDS011;33659;42.672;23.354;2023-12-04T05:43:46;5.03;;;4.47;;
11691;SDS011;33659;42.672;23.354;2023-12-04T05:46:13;2.77;;;2.57;;
11691;SDS011;33659;42.672;23.354;2023-12-04T05:48:40;5.17;;;4.50;;
11691;SDS011;33659;42.672;23.354;2023-12-04T05:51:08;5.27;;;3.93;;
11691;SDS011;33659;42.672;23.354;2023-12-04T05:53:37;5.70;;;4.77;;
11691;SDS011;33659;42.672;23.354;2023-12-04T05:56:05;7.10;;;4.60;;
11691;SDS011;33659;42.672;23.354;2023-12-04T05:58:34;6.53;;;4.53;;
11691;SDS011;33659;42.672;23.354;2023-12-04T06:01:00;3.53;;;3.20;;
11691;SDS011;33659;42.672;23.354;2023-12-04T06:03:27;4.27;;;3.30;;
11691;SDS011;33659;42.672;23.354;2023-12-04T06:05:54;4.43;;;4.03;;
11691;SDS011;33659;42.672;23.354;2023-12-04T06:08:22;5.00;;;3.70;;
11691;SDS011;33659;42.672;23.354;2023-12-04T06:10:49;4.03;;;3.73;;
11691;SDS011;33659;42.672;23.354;2023-12-04T06:13:16;4.40;;;4.00;;
11691;SDS011;33659;42.672;23.354;2023-12-04T06:15:43;5.23;;;4.33;;
11691;SDS011;33659;42.672;23.354;2023-12-04T06:18:10;6.20;;;4.67;;
11691;SDS011;33659;42.672;23.354;2023-12-04T06:20:37;4.53;;;4.03;;
11691;SDS011;33659;42.672;23.354;2023-12-04T06:23:04;5.77;;;4.27;;
11691;SDS011;33659;42.672;23.354;2023-12-04T06:25:32;5.57;;;4.23;;
11691;SDS011;33659;42.672;23.354;2023-12-04T06:28:00;5.93;;;4.50;;
11691;SDS011;33659;42.672;23.354;2023-12-04T06:30:27;7.63;;;4.10;;
11691;SDS011;33659;42.672;23.354;2023-12-04T06:32:54;4.07;;;3.70;;
11691;SDS011;33659;42.672;23.354;2023-12-04T06:35:21;6.07;;;3.67;;
11691;SDS011;33659;42.672;23.354;2023-12-04T06:37:49;8.33;;;4.73;;
11691;SDS011;33659;42.672;23.354;2023-12-04T06:40:20;7.33;;;5.07;;
11691;SDS011;33659;42.672;23.354;2023-12-04T06:42:47;5.03;;;4.53;;
11691;SDS011;33659;42.672;23.354;2023-12-04T06:45:15;6.80;;;4.63;;
11691;SDS011;33659;42.672;23.354;2023-12-04T06:47:43;5.60;;;5.07;;
11691;SDS011;33659;42.672;23.354;2023-12-04T06:50:11;6.07;;;4.37;;
11691;SDS011;33659;42.672;23.354;2023-12-04T06:52:38;7.93;;;5.33;;
11691;SDS011;33659;42.672;23.354;2023-12-04T06:55:05;7.20;;;5.03;;
11691;SDS011;33659;42.672;23.354;2023-12-04T06:57:33;4.80;;;4.40;;
11691;SDS011;33659;42.672;23.354;2023-12-04T07:00:01;5.00;;;4.33;;
11691;SDS011;33659;42.672;23.354;2023-12-04T07:02:28;6.10;;;5.13;;
11691;SDS011;33659;42.672;23.354;2023-12-04T07:04:55;6.97;;;5.40;;
11691;SDS011;33659;42.672;23.354;2023-12-04T07:07:22;7.77;;;4.80;;
11691;SDS011;33659;42.672;23.354;2023-12-04T07:09:48;4.40;;;3.97;;
11691;SDS011;33659;42.672;23.354;2023-12-04T07:12:15;6.73;;;5.10;;
11691;SDS011;33659;42.672;23.354;2023-12-04T07:14:42;5.67;;;4.33;;
11691;SDS011;33659;42.672;23.354;2023-12-04T07:17:10;5.80;;;4.63;;
11691;SDS011;33659;42.672;23.354;2023-12-04T07:19:37;5.67;;;5.10;;
11691;SDS011;33659;42.672;23.354;2023-12-04T07:22:04;5.90;;;4.57;;
11691;SDS011;33659;42.672;23.354;2023-12-04T07:24:31;7.47;;;4.93;;
11691;SDS011;33659;42.672;23.354;2023-12-04T07:26:58;6.43;;;4.97;;
11691;SDS011;33659;42.672;23.354;2023-12-04T07:29:25;5.70;;;4.73;;
11691;SDS011;33659;42.672;23.354;2023-12-04T07:31:51;8.40;;;5.10;;
11691;SDS011;33659;42.672;23.354;2023-12-04T07:34:19;5.73;;;5.10;;
11691;SDS011;33659;42.672;23.354;2023-12-04T07:36:46;4.27;;;3.70;;
11691;SDS011;33659;42.672;23.354;2023-12-04T07:39:13;6.10;;;4.30;;
11691;SDS011;33659;42.672;23.354;2023-12-04T07:41:40;8.50;;;4.60;;
11691;SDS011;33659;42.672;23.354;2023-12-04T07:44:07;9.00;;;4.83;;
11691;SDS011;33659;42.672;23.354;2023-12-04T07:46:33;5.63;;;4.67;;
11691;SDS011;33659;42.672;23.354;2023-12-04T07:49:01;7.00;;;4.47;;
11691;SDS011;33659;42.672;23.354;2023-12-04T07:51:30;4.80;;;3.70;;
11691;SDS011;33659;42.672;23.354;2023-12-04T07:53:57;5.17;;;4.00;;
11691;SDS011;33659;42.672;23.354;2023-12-04T07:56:24;5.83;;;4.33;;
11691;SDS011;33659;42.672;23.354;2023-12-04T07:58:51;5.83;;;4.43;;
11691;SDS011;33659;42.672;23.354;2023-12-04T08:01:17;4.90;;;4.40;;
11691;SDS011;33659;42.672;23.354;2023-12-04T08:03:44;5.33;;;4.30;;
11691;SDS011;33659;42.672;23.354;2023-12-04T08:06:11;6.87;;;4.63;;
11691;SDS011;33659;42.672;23.354;2023-12-04T08:08:39;5.87;;;4.77;;
11691;SDS011;33659;42.672;23.354;2023-12-04T08:11:06;4.97;;;3.90;;
11691;SDS011;33659;42.672;23.354;2023-12-04T08:13:35;4.47;;;3.93;;
11691;SDS011;33659;42.672;23.354;2023-12-04T08:16:04;5.53;;;4.00;;
11691;SDS011;33659;42.672;23.354;2023-12-04T08:18:31;6.80;;;4.40;;
11691;SDS011;33659;42.672;23.354;2023-12-04T08:20:59;4.97;;;4.47;;
11691;SDS011;33659;42.672;23.354;2023-12-04T08:23:26;5.10;;;4.60;;
11691;SDS011;33659;42.672;23.354;2023-12-04T08:25:55;5.23;;;3.83;;
11691;SDS011;33659;42.672;23.354;2023-12-04T08:28:22;4.60;;;3.30;;
11691;SDS011;33659;42.672;23.354;2023-12-04T08:30:48;4.20;;;3.57;;
11691;SDS011;33659;42.672;23.354;2023-12-04T08:33:15;4.07;;;3.33;;
11691;SDS011;33659;42.672;23.354;2023-12-04T08:35:43;4.37;;;3.60;;
11691;SDS011;33659;42.672;23.354;2023-12-04T08:38:10;4.03;;;3.20;;
11691;SDS011;33659;42.672;23.354;2023-12-04T08:40:36;4.17;;;3.73;;
11691;SDS011;33659;42.672;23.354;2023-12-04T08:43:04;4.40;;;3.20;;
11691;SDS011;33659;42.672;23.354;2023-12-04T08:45:31;6.43;;;4.27;;
11691;SDS011;33659;42.672;23.354;2023-12-04T08:47:58;8.90;;;4.03;;
11691;SDS011;33659;42.672;23.354;2023-12-04T08:50:25;4.53;;;3.60;;
11691;SDS011;33659;42.672;23.354;2023-12-04T08:52:52;5.07;;;3.53;;
11691;SDS011;33659;42.672;23.354;2023-12-04T08:55:20;4.43;;;3.70;;
11691;SDS011;33659;42.672;23.354;2023-12-04T08:57:47;4.60;;;3.90;;
11691;SDS011;33659;42.672;23.354;2023-12-04T09:00:15;4.13;;;3.43;;
11691;SDS011;33659;42.672;23.354;2023-12-04T09:02:43;4.53;;;3.80;;
11691;SDS011;33659;42.672;23.354;2023-12-04T09:05:09;4.83;;;3.60;;
11691;SDS011;33659;42.672;23.354;2023-12-04T09:07:36;5.33;;;3.67;;
11691;SDS011;33659;42.672;23.354;2023-12-04T09:10:04;6.27;;;3.67;;
11691;SDS011;33659;42.672;23.354;2023-12-04T09:12:31;3.57;;;3.27;;
11691;SDS011;33659;42.672;23.354;2023-12-04T09:15:00;6.50;;;3.67;;
11691;SDS011;33659;42.672;23.354;2023-12-04T09:17:28;6.33;;;3.70;;
11691;SDS011;33659;42.672;23.354;2023-12-04T09:19:55;3.27;;;2.93;;
11691;SDS011;33659;42.672;23.354;2023-12-04T09:22:21;3.73;;;3.30;;
11691;SDS011;33659;42.672;23.354;2023-12-04T09:24:48;5.33;;;4.10;;
11691;SDS011;33659;42.672;23.354;2023-12-04T09:27:15;5.47;;;3.63;;
11691;SDS011;33659;42.672;23.354;2023-12-04T09:29:42;6.03;;;3.60;;
11691;SDS011;33659;42.672;23.354;2023-12-04T09:32:09;7.00;;;3.60;;
11691;SDS011;33659;42.672;23.354;2023-12-04T09:34:37;4.10;;;3.63;;
11691;SDS011;33659;42.672;23.354;2023-12-04T09:37:05;6.93;;;3.93;;
11691;SDS011;33659;42.672;23.354;2023-12-04T09:39:32;3.93;;;3.57;;
11691;SDS011;33659;42.672;23.354;2023-12-04T09:41:59;5.73;;;3.60;;
11691;SDS011;33659;42.672;23.354;2023-12-04T09:44:28;5.10;;;3.63;;
11691;SDS011;33659;42.672;23.354;2023-12-04T09:46:56;5.03;;;3.57;;
11691;SDS011;33659;42.672;23.354;2023-12-04T09:49:23;3.77;;;3.40;;
11691;SDS011;33659;42.672;23.354;2023-12-04T09:51:55;7.73;;;4.10;;
11691;SDS011;33659;42.672;23.354;2023-12-04T09:54:24;4.87;;;3.77;;
11691;SDS011;33659;42.672;23.354;2023-12-04T09:56:51;4.87;;;4.00;;
11691;SDS011;33659;42.672;23.354;2023-12-04T09:59:18;4.70;;;4.00;;
11691;SDS011;33659;42.672;23.354;2023-12-04T10:01:49;4.57;;;3.33;;
11691;SDS011;33659;42.672;23.354;2023-12-04T10:04:17;5.73;;;3.73;;
11691;SDS011;33659;42.672;23.354;2023-12-04T10:06:44;5.70;;;4.10;;
11691;SDS011;33659;42.672;23.354;2023-12-04T10:09:13;6.90;;;4.00;;
11691;SDS011;33659;42.672;23.354;2023-12-04T10:11:40;5.30;;;4.23;;
11691;SDS011;33659;42.672;23.354;2023-12-04T10:14:14;4.27;;;3.67;;
11691;SDS011;33659;42.672;23.354;2023-12-04T10:16:41;4.43;;;3.77;;
11691;SDS011;33659;42.672;23.354;2023-12-04T10:19:14;5.43;;;3.67;;
11691;SDS011;33659;42.672;23.354;2023-12-04T10:21:43;5.00;;;3.70;;
11691;SDS011;33659;42.672;23.354;2023-12-04T10:24:09;4.60;;;3.50;;
11691;SDS011;33659;42.672;23.354;2023-12-04T10:26:38;4.43;;;3.70;;
11691;SDS011;33659;42.672;23.354;2023-12-04T10:29:15;15.13;;;4.10;;
11691;SDS011;33659;42.672;23.354;2023-12-04T10:31:42;6.20;;;3.70;;
11691;SDS011;33659;42.672;23.354;2023-12-04T10:34:08;4.00;;;3.60;;
11691;SDS011;33659;42.672;23.354;2023-12-04T10:36:36;5.50;;;3.13;;
11691;SDS011;33659;42.672;23.354;2023-12-04T10:39:03;4.50;;;3.47;;
11691;SDS011;33659;42.672;23.354;2023-12-04T10:41:30;4.70;;;3.90;;
11691;SDS011;33659;42.672;23.354;2023-12-04T10:43:59;4.43;;;4.03;;
11691;SDS011;33659;42.672;23.354;2023-12-04T10:46:27;5.07;;;3.63;;
11691;SDS011;33659;42.672;23.354;2023-12-04T10:48:55;4.60;;;3.67;;
11691;SDS011;33659;42.672;23.354;2023-12-04T10:51:23;4.70;;;4.17;;
11691;SDS011;33659;42.672;23.354;2023-12-04T10:53:51;5.77;;;3.97;;
11691;SDS011;33659;42.672;23.354;2023-12-04T10:56:19;7.30;;;4.23;;
11691;SDS011;33659;42.672;23.354;2023-12-04T10:58:51;6.97;;;4.17;;
11691;SDS011;33659;42.672;23.354;2023-12-04T11:01:20;4.60;;;3.87;;
11691;SDS011;33659;42.672;23.354;2023-12-04T11:03:51;5.47;;;4.00;;
11691;SDS011;33659;42.672;23.354;2023-12-04T11:06:20;6.00;;;4.03;;
11691;SDS011;33659;42.672;23.354;2023-12-04T11:08:48;5.10;;;4.13;;
11691;SDS011;33659;42.672;23.354;2023-12-04T11:11:19;7.93;;;4.43;;
11691;SDS011;33659;42.672;23.354;2023-12-04T11:13:53;6.23;;;4.03;;
11691;SDS011;33659;42.672;23.354;2023-12-04T11:16:26;6.80;;;4.37;;
11691;SDS011;33659;42.672;23.354;2023-12-04T11:18:56;5.80;;;4.20;;
11691;SDS011;33659;42.672;23.354;2023-12-04T11:21:28;5.43;;;3.97;;
11691;SDS011;33659;42.672;23.354;2023-12-04T11:23:58;6.57;;;4.22;;
11691;SDS011;33659;42.672;23.354;2023-12-04T11:26:25;7.13;;;4.53;;
11691;SDS011;33659;42.672;23.354;2023-12-04T11:28:53;6.18;;;3.88;;
11691;SDS011;33659;42.672;23.354;2023-12-04T11:31:21;6.75;;;3.92;;
11691;SDS011;33659;42.672;23.354;2023-12-04T11:33:49;4.68;;;3.70;;
11691;SDS011;33659;42.672;23.354;2023-12-04T11:36:16;10.38;;;4.38;;
11691;SDS011;33659;42.672;23.354;2023-12-04T11:38:44;8.70;;;4.20;;
11691;SDS011;33659;42.672;23.354;2023-12-04T11:41:14;9.35;;;4.20;;
11691;SDS011;33659;42.672;23.354;2023-12-04T11:43:42;5.63;;;4.68;;
11691;SDS011;33659;42.672;23.354;2023-12-04T11:46:09;4.93;;;4.32;;
11691;SDS011;33659;42.672;23.354;2023-12-04T11:48:39;5.07;;;4.00;;
11691;SDS011;33659;42.672;23.354;2023-12-04T11:51:17;4.97;;;4.15;;
11691;SDS011;33659;42.672;23.354;2023-12-04T11:54:16;5.97;;;4.35;;
11691;SDS011;33659;42.672;23.354;2023-12-04T11:56:55;5.65;;;4.10;;
11691;SDS011;33659;42.672;23.354;2023-12-04T11:59:24;5.60;;;4.40;;
11691;SDS011;33659;42.672;23.354;2023-12-04T12:01:52;6.25;;;4.60;;
11691;SDS011;33659;42.672;23.354;2023-12-04T12:04:20;5.43;;;4.32;;
11691;SDS011;33659;42.672;23.354;2023-12-04T12:06:50;4.95;;;4.32;;
11691;SDS011;33659;42.672;23.354;2023-12-04T12:09:18;6.20;;;4.30;;
11691;SDS011;33659;42.672;23.354;2023-12-04T12:11:45;5.05;;;4.32;;
11691;SDS011;33659;42.672;23.354;2023-12-04T12:14:12;5.38;;;4.45;;
11691;SDS011;33659;42.672;23.354;2023-12-04T12:16:39;6.82;;;4.57;;
11691;SDS011;33659;42.672;23.354;2023-12-04T12:19:06;5.93;;;4.53;;
11691;SDS011;33659;42.672;23.354;2023-12-04T12:21:33;5.75;;;4.60;;
11691;SDS011;33659;42.672;23.354;2023-12-04T12:24:01;6.85;;;4.03;;
11691;SDS011;33659;42.672;23.354;2023-12-04T12:26:28;5.18;;;3.92;;
11691;SDS011;33659;42.672;23.354;2023-12-04T12:28:55;6.53;;;4.35;;
11691;SDS011;33659;42.672;23.354;2023-12-04T12:31:22;4.40;;;4.00;;
11691;SDS011;33659;42.672;23.354;2023-12-04T12:33:49;5.60;;;4.13;;
11691;SDS011;33659;42.672;23.354;2023-12-04T12:36:17;6.22;;;4.68;;
11691;SDS011;33659;42.672;23.354;2023-12-04T12:38:44;5.28;;;4.03;;
11691;SDS011;33659;42.672;23.354;2023-12-04T12:41:16;5.78;;;4.30;;
11691;SDS011;33659;42.672;23.354;2023-12-04T12:43:43;5.75;;;4.15;;
11691;SDS011;33659;42.672;23.354;2023-12-04T12:46:10;6.40;;;3.85;;
11691;SDS011;33659;42.672;23.354;2023-12-04T12:48:40;5.55;;;3.83;;
11691;SDS011;33659;42.672;23.354;2023-12-04T12:51:09;5.55;;;3.85;;
11691;SDS011;33659;42.672;23.354;2023-12-04T12:53:36;4.80;;;3.72;;
11691;SDS011;33659;42.672;23.354;2023-12-04T12:56:03;5.53;;;4.70;;
11691;SDS011;33659;42.672;23.354;2023-12-04T12:58:32;7.63;;;5.22;;
11691;SDS011;33659;42.672;23.354;2023-12-04T13:00:59;12.25;;;5.15;;
11691;SDS011;33659;42.672;23.354;2023-12-04T13:03:27;5.75;;;4.50;;
11691;SDS011;33659;42.672;23.354;2023-12-04T13:05:56;7.30;;;5.18;;
11691;SDS011;33659;42.672;23.354;2023-12-04T13:08:23;9.18;;;6.40;;
11691;SDS011;33659;42.672;23.354;2023-12-04T13:10:49;8.73;;;6.93;;
11691;SDS011;33659;42.672;23.354;2023-12-04T13:13:17;10.63;;;7.18;;
11691;SDS011;33659;42.672;23.354;2023-12-04T13:15:45;14.05;;;6.45;;
11691;SDS011;33659;42.672;23.354;2023-12-04T13:18:12;7.80;;;6.22;;
11691;SDS011;33659;42.672;23.354;2023-12-04T13:20:39;11.55;;;7.32;;
11691;SDS011;33659;42.672;23.354;2023-12-04T13:23:05;15.40;;;7.03;;
11691;SDS011;33659;42.672;23.354;2023-12-04T13:25:34;12.95;;;7.78;;
11691;SDS011;33659;42.672;23.354;2023-12-04T13:28:00;9.83;;;6.53;;
11691;SDS011;33659;42.672;23.354;2023-12-04T13:30:27;9.77;;;6.27;;
11691;SDS011;33659;42.672;23.354;2023-12-04T13:32:55;13.73;;;7.50;;
11691;SDS011;33659;42.672;23.354;2023-12-04T13:35:22;9.43;;;6.43;;
11691;SDS011;33659;42.672;23.354;2023-12-04T13:37:49;12.73;;;6.83;;
11691;SDS011;33659;42.672;23.354;2023-12-04T13:40:20;11.10;;;6.57;;
11691;SDS011;33659;42.672;23.354;2023-12-04T13:42:51;13.03;;;6.67;;
11691;SDS011;33659;42.672;23.354;2023-12-04T13:45:35;12.20;;;6.73;;
11691;SDS011;33659;42.672;23.354;2023-12-04T13:48:04;9.43;;;6.57;;
11691;SDS011;33659;42.672;23.354;2023-12-04T13:50:31;13.80;;;6.37;;
11691;SDS011;33659;42.672;23.354;2023-12-04T13:52:57;9.27;;;6.53;;
11691;SDS011;33659;42.672;23.354;2023-12-04T13:55:25;8.80;;;5.93;;
11691;SDS011;33659;42.672;23.354;2023-12-04T13:58:08;9.03;;;6.17;;
11691;SDS011;33659;42.672;23.354;2023-12-04T14:00:42;9.23;;;5.80;;
11691;SDS011;33659;42.672;23.354;2023-12-04T14:03:10;13.97;;;6.70;;
11691;SDS011;33659;42.672;23.354;2023-12-04T14:05:37;11.17;;;5.43;;
11691;SDS011;33659;42.672;23.354;2023-12-04T14:08:04;10.60;;;6.63;;
11691;SDS011;33659;42.672;23.354;2023-12-04T14:10:31;10.50;;;6.17;;
11691;SDS011;33659;42.672;23.354;2023-12-04T14:12:57;12.30;;;6.87;;
11691;SDS011;33659;42.672;23.354;2023-12-04T14:15:24;9.13;;;6.20;;
11691;SDS011;33659;42.672;23.354;2023-12-04T14:17:51;12.20;;;6.87;;
11691;SDS011;33659;42.672;23.354;2023-12-04T14:20:19;9.30;;;6.17;;
11691;SDS011;33659;42.672;23.354;2023-12-04T14:22:47;12.57;;;6.10;;
11691;SDS011;33659;42.672;23.354;2023-12-04T14:25:14;10.67;;;6.40;;
11691;SDS011;33659;42.672;23.354;2023-12-04T14:27:40;14.23;;;5.90;;
11691;SDS011;33659;42.672;23.354;2023-12-04T14:30:10;8.57;;;6.00;;
11691;SDS011;33659;42.672;23.354;2023-12-04T14:32:40;12.70;;;6.43;;
11691;SDS011;33659;42.672;23.354;2023-12-04T14:35:07;11.27;;;6.30;;
11691;SDS011;33659;42.672;23.354;2023-12-04T14:37:35;10.57;;;5.97;;